sensor_id;sensor_type;location;lat;lon;timestamp;P1;durP1;ratioP1;P2;durP2;ratioP2
49730;SDS011;35622;52.008;5.426;2022-07-04T00:00:15;5.18;;;2.33;;
49730;SDS011;35622;52.008;5.426;2022-07-04T00:02:42;4.70;;;2.10;;
49730;SDS011;35622;52.008;5.426;2022-07-04T00:05:08;4.28;;;1.90;;
49730;SDS011;35622;52.008;5.426;2022-07-04T00:07:42;3.75;;;1.88;;
49730;SDS011;35622;52.008;5.426;2022-07-04T00:10:09;4.50;;;1.60;;
49730;SDS011;35622;52.008;5.426;2022-07-04T00:12:37;3.60;;;1.83;;
49730;SDS011;35622;52.008;5.426;2022-07-04T00:15:03;2.83;;;1.73;;
49730;SDS011;35622;52.008;5.426;2022-07-04T00:17:30;3.13;;;2.20;;
49730;SDS011;35622;52.008;5.426;2022-07-04T00:19:56;4.55;;;2.15;;
49730;SDS011;35622;52.008;5.426;2022-07-04T00:22:22;5.25;;;2.65;;
49730;SDS011;35622;52.008;5.426;2022-07-04T00:24:47;6.32;;;2.42;;
49730;SDS011;35622;52.008;5.426;2022-07-04T00:27:13;4.93;;;2.35;;
49730;SDS011;35622;52.008;5.426;2022-07-04T00:29:38;3.75;;;2.50;;
49730;SDS011;35622;52.008;5.426;2022-07-04T00:32:04;2.75;;;1.88;;
49730;SDS011;35622;52.008;5.426;2022-07-04T00:34:30;2.85;;;2.30;;
49730;SDS011;35622;52.008;5.426;2022-07-04T00:36:56;2.85;;;2.28;;
49730;SDS011;35622;52.008;5.426;2022-07-04T00:39:21;3.13;;;1.83;;
49730;SDS011;35622;52.008;5.426;2022-07-04T00:41:47;2.53;;;1.70;;
49730;SDS011;35622;52.008;5.426;2022-07-04T00:44:13;3.13;;;2.10;;
49730;SDS011;35622;52.008;5.426;2022-07-04T00:46:40;5.28;;;2.03;;
49730;SDS011;35622;52.008;5.426;2022-07-04T00:49:07;2.38;;;2.00;;
49730;SDS011;35622;52.008;5.426;2022-07-04T00:51:33;3.78;;;2.45;;
49730;SDS011;35622;52.008;5.426;2022-07-04T00:53:59;4.30;;;2.50;;
49730;SDS011;35622;52.008;5.426;2022-07-04T00:56:25;3.05;;;2.00;;
49730;SDS011;35622;52.008;5.426;2022-07-04T00:58:51;5.45;;;2.90;;
49730;SDS011;35622;52.008;5.426;2022-07-04T01:01:18;3.03;;;2.20;;
49730;SDS011;35622;52.008;5.426;2022-07-04T01:03:47;3.92;;;2.30;;
49730;SDS011;35622;52.008;5.426;2022-07-04T01:06:14;3.97;;;2.53;;
49730;SDS011;35622;52.008;5.426;2022-07-04T01:08:41;3.67;;;2.33;;
49730;SDS011;35622;52.008;5.426;2022-07-04T01:11:07;3.08;;;2.08;;
49730;SDS011;35622;52.008;5.426;2022-07-04T01:13:34;4.65;;;3.15;;
49730;SDS011;35622;52.008;5.426;2022-07-04T01:16:00;5.13;;;2.70;;
49730;SDS011;35622;52.008;5.426;2022-07-04T01:18:27;4.55;;;2.58;;
49730;SDS011;35622;52.008;5.426;2022-07-04T01:20:52;3.83;;;2.65;;
49730;SDS011;35622;52.008;5.426;2022-07-04T01:23:18;3.95;;;1.88;;
49730;SDS011;35622;52.008;5.426;2022-07-04T01:25:44;3.88;;;2.17;;
49730;SDS011;35622;52.008;5.426;2022-07-04T01:28:09;4.70;;;2.92;;
49730;SDS011;35622;52.008;5.426;2022-07-04T01:30:36;4.32;;;2.70;;
49730;SDS011;35622;52.008;5.426;2022-07-04T01:33:03;5.95;;;2.97;;
49730;SDS011;35622;52.008;5.426;2022-07-04T01:35:29;7.47;;;2.85;;
49730;SDS011;35622;52.008;5.426;2022-07-04T01:37:55;7.95;;;3.28;;
49730;SDS011;35622;52.008;5.426;2022-07-04T01:40:21;3.47;;;2.67;;
49730;SDS011;35622;52.008;5.426;2022-07-04T01:42:46;7.25;;;3.28;;
49730;SDS011;35622;52.008;5.426;2022-07-04T01:45:12;4.03;;;3.10;;
49730;SDS011;35622;52.008;5.426;2022-07-04T01:47:38;5.32;;;3.13;;
49730;SDS011;35622;52.008;5.426;2022-07-04T01:50:05;4.03;;;2.83;;
49730;SDS011;35622;52.008;5.426;2022-07-04T01:52:32;3.13;;;2.75;;
49730;SDS011;35622;52.008;5.426;2022-07-04T01:54:58;3.85;;;2.22;;
49730;SDS011;35622;52.008;5.426;2022-07-04T01:57:24;4.15;;;1.98;;
49730;SDS011;35622;52.008;5.426;2022-07-04T01:59:50;4.30;;;2.08;;
49730;SDS011;35622;52.008;5.426;2022-07-04T02:02:34;3.30;;;2.10;;
49730;SDS011;35622;52.008;5.426;2022-07-04T02:05:00;3.10;;;2.30;;
49730;SDS011;35622;52.008;5.426;2022-07-04T02:07:25;5.68;;;2.50;;
49730;SDS011;35622;52.008;5.426;2022-07-04T02:09:51;4.68;;;2.47;;
49730;SDS011;35622;52.008;5.426;2022-07-04T02:12:17;4.40;;;2.50;;
49730;SDS011;35622;52.008;5.426;2022-07-04T02:15:02;4.13;;;2.70;;
49730;SDS011;35622;52.008;5.426;2022-07-04T02:17:28;2.67;;;2.05;;
49730;SDS011;35622;52.008;5.426;2022-07-04T02:19:53;4.50;;;2.50;;
49730;SDS011;35622;52.008;5.426;2022-07-04T02:22:19;3.60;;;2.50;;
49730;SDS011;35622;52.008;5.426;2022-07-04T02:24:44;3.92;;;2.60;;
49730;SDS011;35622;52.008;5.426;2022-07-04T02:27:10;4.82;;;2.67;;
49730;SDS011;35622;52.008;5.426;2022-07-04T02:29:36;4.45;;;2.67;;
49730;SDS011;35622;52.008;5.426;2022-07-04T02:32:02;5.00;;;2.13;;
49730;SDS011;35622;52.008;5.426;2022-07-04T02:34:28;3.95;;;2.40;;
49730;SDS011;35622;52.008;5.426;2022-07-04T02:36:53;5.30;;;2.30;;
49730;SDS011;35622;52.008;5.426;2022-07-04T02:39:19;3.65;;;2.55;;
49730;SDS011;35622;52.008;5.426;2022-07-04T02:41:45;3.63;;;2.72;;
49730;SDS011;35622;52.008;5.426;2022-07-04T02:44:11;4.10;;;3.33;;
49730;SDS011;35622;52.008;5.426;2022-07-04T02:46:37;4.50;;;3.40;;
49730;SDS011;35622;52.008;5.426;2022-07-04T02:49:03;4.30;;;3.25;;
49730;SDS011;35622;52.008;5.426;2022-07-04T02:51:29;4.18;;;3.45;;
49730;SDS011;35622;52.008;5.426;2022-07-04T02:53:55;4.78;;;2.80;;
49730;SDS011;35622;52.008;5.426;2022-07-04T02:56:21;4.60;;;3.15;;
49730;SDS011;35622;52.008;5.426;2022-07-04T02:58:47;6.43;;;2.83;;
49730;SDS011;35622;52.008;5.426;2022-07-04T03:01:13;4.45;;;2.38;;
49730;SDS011;35622;52.008;5.426;2022-07-04T03:03:39;5.13;;;2.40;;
49730;SDS011;35622;52.008;5.426;2022-07-04T03:06:09;4.97;;;3.33;;
49730;SDS011;35622;52.008;5.426;2022-07-04T03:08:35;4.13;;;2.90;;
49730;SDS011;35622;52.008;5.426;2022-07-04T03:11:02;4.30;;;3.47;;
49730;SDS011;35622;52.008;5.426;2022-07-04T03:13:28;5.63;;;3.58;;
49730;SDS011;35622;52.008;5.426;2022-07-04T03:15:53;5.47;;;3.70;;
49730;SDS011;35622;52.008;5.426;2022-07-04T03:18:19;4.45;;;3.40;;
49730;SDS011;35622;52.008;5.426;2022-07-04T03:20:45;4.88;;;3.65;;
49730;SDS011;35622;52.008;5.426;2022-07-04T03:23:11;4.75;;;3.47;;
49730;SDS011;35622;52.008;5.426;2022-07-04T03:25:37;3.58;;;3.13;;
49730;SDS011;35622;52.008;5.426;2022-07-04T03:28:03;6.15;;;3.63;;
49730;SDS011;35622;52.008;5.426;2022-07-04T03:30:29;4.85;;;3.15;;
49730;SDS011;35622;52.008;5.426;2022-07-04T03:32:55;4.50;;;3.13;;
49730;SDS011;35622;52.008;5.426;2022-07-04T03:35:20;7.65;;;4.03;;
49730;SDS011;35622;52.008;5.426;2022-07-04T03:37:46;6.60;;;4.00;;
49730;SDS011;35622;52.008;5.426;2022-07-04T03:40:12;4.65;;;3.15;;
49730;SDS011;35622;52.008;5.426;2022-07-04T03:42:37;6.22;;;3.42;;
49730;SDS011;35622;52.008;5.426;2022-07-04T03:45:03;4.65;;;3.30;;
49730;SDS011;35622;52.008;5.426;2022-07-04T03:47:31;4.68;;;2.97;;
49730;SDS011;35622;52.008;5.426;2022-07-04T03:49:56;4.40;;;3.35;;
49730;SDS011;35622;52.008;5.426;2022-07-04T03:52:22;5.28;;;3.63;;
49730;SDS011;35622;52.008;5.426;2022-07-04T03:54:47;5.00;;;3.35;;
49730;SDS011;35622;52.008;5.426;2022-07-04T03:57:13;5.38;;;3.80;;
49730;SDS011;35622;52.008;5.426;2022-07-04T03:59:39;5.15;;;3.58;;
49730;SDS011;35622;52.008;5.426;2022-07-04T04:02:04;5.05;;;3.60;;
49730;SDS011;35622;52.008;5.426;2022-07-04T04:04:30;5.63;;;3.97;;
49730;SDS011;35622;52.008;5.426;2022-07-04T04:07:15;5.47;;;3.92;;
49730;SDS011;35622;52.008;5.426;2022-07-04T04:09:40;7.00;;;3.60;;
49730;SDS011;35622;52.008;5.426;2022-07-04T04:12:06;6.85;;;4.03;;
49730;SDS011;35622;52.008;5.426;2022-07-04T04:14:32;6.75;;;3.55;;
49730;SDS011;35622;52.008;5.426;2022-07-04T04:16:57;10.00;;;4.82;;
49730;SDS011;35622;52.008;5.426;2022-07-04T04:19:23;7.20;;;3.50;;
49730;SDS011;35622;52.008;5.426;2022-07-04T04:21:48;8.70;;;3.92;;
49730;SDS011;35622;52.008;5.426;2022-07-04T04:24:14;8.07;;;3.70;;
49730;SDS011;35622;52.008;5.426;2022-07-04T04:26:39;8.50;;;3.60;;
49730;SDS011;35622;52.008;5.426;2022-07-04T04:29:05;5.05;;;3.33;;
49730;SDS011;35622;52.008;5.426;2022-07-04T04:31:31;4.47;;;3.30;;
49730;SDS011;35622;52.008;5.426;2022-07-04T04:33:56;4.97;;;2.80;;
49730;SDS011;35622;52.008;5.426;2022-07-04T04:36:22;8.43;;;3.45;;
49730;SDS011;35622;52.008;5.426;2022-07-04T04:38:48;4.93;;;2.58;;
49730;SDS011;35622;52.008;5.426;2022-07-04T04:41:13;6.72;;;3.50;;
49730;SDS011;35622;52.008;5.426;2022-07-04T04:43:39;8.57;;;3.60;;
49730;SDS011;35622;52.008;5.426;2022-07-04T04:46:05;3.95;;;2.78;;
49730;SDS011;35622;52.008;5.426;2022-07-04T04:48:30;6.95;;;3.20;;
49730;SDS011;35622;52.008;5.426;2022-07-04T04:50:56;7.30;;;2.95;;
49730;SDS011;35622;52.008;5.426;2022-07-04T04:53:21;6.80;;;3.30;;
49730;SDS011;35622;52.008;5.426;2022-07-04T04:55:50;7.05;;;2.70;;
49730;SDS011;35622;52.008;5.426;2022-07-04T04:58:16;6.43;;;2.60;;
49730;SDS011;35622;52.008;5.426;2022-07-04T05:00:42;8.57;;;2.65;;
49730;SDS011;35622;52.008;5.426;2022-07-04T05:03:08;3.65;;;2.40;;
49730;SDS011;35622;52.008;5.426;2022-07-04T05:05:34;5.47;;;2.80;;
49730;SDS011;35622;52.008;5.426;2022-07-04T05:07:59;3.85;;;2.28;;
49730;SDS011;35622;52.008;5.426;2022-07-04T05:10:25;3.83;;;2.08;;
49730;SDS011;35622;52.008;5.426;2022-07-04T05:12:50;3.78;;;2.72;;
49730;SDS011;35622;52.008;5.426;2022-07-04T05:15:16;5.22;;;2.70;;
49730;SDS011;35622;52.008;5.426;2022-07-04T05:17:41;4.82;;;2.05;;
49730;SDS011;35622;52.008;5.426;2022-07-04T05:20:07;5.82;;;2.80;;
49730;SDS011;35622;52.008;5.426;2022-07-04T05:22:33;6.82;;;2.60;;
49730;SDS011;35622;52.008;5.426;2022-07-04T05:24:59;4.63;;;2.38;;
49730;SDS011;35622;52.008;5.426;2022-07-04T05:27:25;4.00;;;2.30;;
49730;SDS011;35622;52.008;5.426;2022-07-04T05:29:51;7.15;;;2.75;;
49730;SDS011;35622;52.008;5.426;2022-07-04T05:32:16;2.90;;;2.00;;
49730;SDS011;35622;52.008;5.426;2022-07-04T05:34:42;5.78;;;3.15;;
49730;SDS011;35622;52.008;5.426;2022-07-04T05:37:07;4.07;;;2.25;;
49730;SDS011;35622;52.008;5.426;2022-07-04T05:39:33;6.45;;;2.42;;
49730;SDS011;35622;52.008;5.426;2022-07-04T05:41:59;6.60;;;3.10;;
49730;SDS011;35622;52.008;5.426;2022-07-04T05:44:24;6.90;;;3.45;;
49730;SDS011;35622;52.008;5.426;2022-07-04T05:46:50;6.95;;;3.50;;
49730;SDS011;35622;52.008;5.426;2022-07-04T05:49:15;8.48;;;4.40;;
49730;SDS011;35622;52.008;5.426;2022-07-04T05:51:41;8.35;;;5.35;;
49730;SDS011;35622;52.008;5.426;2022-07-04T05:54:07;8.82;;;4.70;;
49730;SDS011;35622;52.008;5.426;2022-07-04T05:56:33;7.38;;;4.53;;
49730;SDS011;35622;52.008;5.426;2022-07-04T05:58:58;7.75;;;4.78;;
49730;SDS011;35622;52.008;5.426;2022-07-04T06:01:24;8.15;;;4.70;;
49730;SDS011;35622;52.008;5.426;2022-07-04T06:03:50;8.75;;;4.15;;
49730;SDS011;35622;52.008;5.426;2022-07-04T06:06:15;6.25;;;3.50;;
49730;SDS011;35622;52.008;5.426;2022-07-04T06:08:41;7.32;;;3.15;;
49730;SDS011;35622;52.008;5.426;2022-07-04T06:11:07;6.90;;;3.60;;
49730;SDS011;35622;52.008;5.426;2022-07-04T06:13:33;7.88;;;4.15;;
49730;SDS011;35622;52.008;5.426;2022-07-04T06:15:59;6.63;;;3.28;;
49730;SDS011;35622;52.008;5.426;2022-07-04T06:18:24;7.78;;;3.90;;
49730;SDS011;35622;52.008;5.426;2022-07-04T06:20:50;6.40;;;3.53;;
49730;SDS011;35622;52.008;5.426;2022-07-04T06:23:15;6.85;;;2.85;;
49730;SDS011;35622;52.008;5.426;2022-07-04T06:25:41;6.95;;;3.42;;
49730;SDS011;35622;52.008;5.426;2022-07-04T06:28:06;6.35;;;3.05;;
49730;SDS011;35622;52.008;5.426;2022-07-04T06:30:32;5.00;;;2.90;;
49730;SDS011;35622;52.008;5.426;2022-07-04T06:32:58;4.90;;;2.60;;
49730;SDS011;35622;52.008;5.426;2022-07-04T06:35:25;5.00;;;1.90;;
49730;SDS011;35622;52.008;5.426;2022-07-04T06:38:14;6.22;;;2.10;;
49730;SDS011;35622;52.008;5.426;2022-07-04T06:40:41;7.70;;;3.55;;
49730;SDS011;35622;52.008;5.426;2022-07-04T06:43:07;8.68;;;2.88;;
49730;SDS011;35622;52.008;5.426;2022-07-04T06:45:33;5.03;;;2.80;;
49730;SDS011;35622;52.008;5.426;2022-07-04T06:47:59;6.53;;;2.10;;
49730;SDS011;35622;52.008;5.426;2022-07-04T06:50:26;8.23;;;3.33;;
49730;SDS011;35622;52.008;5.426;2022-07-04T06:52:51;5.60;;;2.20;;
49730;SDS011;35622;52.008;5.426;2022-07-04T06:55:17;4.82;;;2.17;;
49730;SDS011;35622;52.008;5.426;2022-07-04T06:57:43;7.15;;;2.63;;
49730;SDS011;35622;52.008;5.426;2022-07-04T07:00:09;4.38;;;2.25;;
49730;SDS011;35622;52.008;5.426;2022-07-04T07:02:35;7.25;;;3.05;;
49730;SDS011;35622;52.008;5.426;2022-07-04T07:05:01;5.95;;;2.70;;
49730;SDS011;35622;52.008;5.426;2022-07-04T07:07:27;5.05;;;2.22;;
49730;SDS011;35622;52.008;5.426;2022-07-04T07:09:53;4.93;;;2.35;;
49730;SDS011;35622;52.008;5.426;2022-07-04T07:12:20;8.95;;;3.28;;
49730;SDS011;35622;52.008;5.426;2022-07-04T07:14:46;6.22;;;3.08;;
49730;SDS011;35622;52.008;5.426;2022-07-04T07:17:12;7.72;;;3.03;;
49730;SDS011;35622;52.008;5.426;2022-07-04T07:19:37;7.40;;;3.08;;
49730;SDS011;35622;52.008;5.426;2022-07-04T07:22:03;6.75;;;2.70;;
49730;SDS011;35622;52.008;5.426;2022-07-04T07:24:29;7.32;;;3.47;;
49730;SDS011;35622;52.008;5.426;2022-07-04T07:26:56;8.35;;;3.33;;
49730;SDS011;35622;52.008;5.426;2022-07-04T07:29:22;8.48;;;2.85;;
49730;SDS011;35622;52.008;5.426;2022-07-04T07:31:48;5.70;;;2.50;;
49730;SDS011;35622;52.008;5.426;2022-07-04T07:34:14;7.90;;;2.92;;
49730;SDS011;35622;52.008;5.426;2022-07-04T07:36:39;6.75;;;3.10;;
49730;SDS011;35622;52.008;5.426;2022-07-04T07:39:05;8.35;;;2.85;;
49730;SDS011;35622;52.008;5.426;2022-07-04T07:41:30;4.38;;;2.65;;
49730;SDS011;35622;52.008;5.426;2022-07-04T07:43:56;6.10;;;2.58;;
49730;SDS011;35622;52.008;5.426;2022-07-04T07:46:22;6.95;;;3.20;;
49730;SDS011;35622;52.008;5.426;2022-07-04T07:48:47;7.45;;;3.17;;
49730;SDS011;35622;52.008;5.426;2022-07-04T07:51:13;7.07;;;2.97;;
49730;SDS011;35622;52.008;5.426;2022-07-04T07:53:40;10.32;;;3.03;;
49730;SDS011;35622;52.008;5.426;2022-07-04T07:56:06;6.90;;;2.45;;
49730;SDS011;35622;52.008;5.426;2022-07-04T07:58:32;7.30;;;2.47;;
49730;SDS011;35622;52.008;5.426;2022-07-04T08:00:57;6.78;;;3.30;;
49730;SDS011;35622;52.008;5.426;2022-07-04T08:03:23;4.80;;;2.30;;
49730;SDS011;35622;52.008;5.426;2022-07-04T08:06:08;7.78;;;2.60;;
49730;SDS011;35622;52.008;5.426;2022-07-04T08:08:34;6.65;;;2.40;;
49730;SDS011;35622;52.008;5.426;2022-07-04T08:11:00;4.80;;;2.00;;
49730;SDS011;35622;52.008;5.426;2022-07-04T08:13:26;4.07;;;2.00;;
49730;SDS011;35622;52.008;5.426;2022-07-04T08:15:51;5.45;;;2.20;;
49730;SDS011;35622;52.008;5.426;2022-07-04T08:18:17;5.20;;;2.10;;
49730;SDS011;35622;52.008;5.426;2022-07-04T08:20:43;5.30;;;2.45;;
49730;SDS011;35622;52.008;5.426;2022-07-04T08:23:09;4.85;;;2.08;;
49730;SDS011;35622;52.008;5.426;2022-07-04T08:25:35;6.68;;;2.10;;
49730;SDS011;35622;52.008;5.426;2022-07-04T08:28:00;5.50;;;1.70;;
49730;SDS011;35622;52.008;5.426;2022-07-04T08:30:26;4.32;;;1.75;;
49730;SDS011;35622;52.008;5.426;2022-07-04T08:32:52;5.40;;;1.50;;
49730;SDS011;35622;52.008;5.426;2022-07-04T08:35:18;3.53;;;1.30;;
49730;SDS011;35622;52.008;5.426;2022-07-04T08:37:43;5.38;;;1.70;;
49730;SDS011;35622;52.008;5.426;2022-07-04T08:40:09;5.75;;;1.80;;
49730;SDS011;35622;52.008;5.426;2022-07-04T08:42:36;5.80;;;2.03;;
49730;SDS011;35622;52.008;5.426;2022-07-04T08:45:03;5.07;;;1.75;;
49730;SDS011;35622;52.008;5.426;2022-07-04T08:47:31;5.22;;;2.10;;
49730;SDS011;35622;52.008;5.426;2022-07-04T08:55:05;7.40;;;2.03;;
49730;SDS011;35622;52.008;5.426;2022-07-04T08:57:52;4.63;;;1.90;;
49730;SDS011;35622;52.008;5.426;2022-07-04T09:00:36;3.63;;;1.55;;
49730;SDS011;35622;52.008;5.426;2022-07-04T09:03:03;3.88;;;1.50;;
49730;SDS011;35622;52.008;5.426;2022-07-04T09:05:30;5.22;;;1.50;;
49730;SDS011;35622;52.008;5.426;2022-07-04T09:07:59;3.25;;;1.55;;
49730;SDS011;35622;52.008;5.426;2022-07-04T09:10:26;1.95;;;1.10;;
49730;SDS011;35622;52.008;5.426;2022-07-04T09:12:52;3.20;;;1.40;;
49730;SDS011;35622;52.008;5.426;2022-07-04T09:15:18;4.40;;;1.30;;
49730;SDS011;35622;52.008;5.426;2022-07-04T09:17:45;3.35;;;1.05;;
49730;SDS011;35622;52.008;5.426;2022-07-04T09:20:12;3.20;;;1.17;;
49730;SDS011;35622;52.008;5.426;2022-07-04T09:22:49;2.85;;;1.33;;
49730;SDS011;35622;52.008;5.426;2022-07-04T09:25:15;2.65;;;1.10;;
49730;SDS011;35622;52.008;5.426;2022-07-04T09:27:45;4.05;;;1.35;;
49730;SDS011;35622;52.008;5.426;2022-07-04T09:30:13;5.30;;;1.50;;
49730;SDS011;35622;52.008;5.426;2022-07-04T09:32:42;4.10;;;1.40;;
49730;SDS011;35622;52.008;5.426;2022-07-04T09:35:10;2.72;;;1.52;;
49730;SDS011;35622;52.008;5.426;2022-07-04T09:37:48;3.85;;;1.27;;
49730;SDS011;35622;52.008;5.426;2022-07-04T09:40:28;3.45;;;1.58;;
49730;SDS011;35622;52.008;5.426;2022-07-04T09:42:58;3.55;;;1.33;;
49730;SDS011;35622;52.008;5.426;2022-07-04T09:45:25;3.00;;;1.30;;
49730;SDS011;35622;52.008;5.426;2022-07-04T09:47:53;2.97;;;1.17;;
49730;SDS011;35622;52.008;5.426;2022-07-04T09:50:24;5.00;;;2.05;;
49730;SDS011;35622;52.008;5.426;2022-07-04T09:52:52;4.07;;;1.65;;
49730;SDS011;35622;52.008;5.426;2022-07-04T09:55:26;4.80;;;1.70;;
49730;SDS011;35622;52.008;5.426;2022-07-04T09:58:00;3.42;;;1.15;;
49730;SDS011;35622;52.008;5.426;2022-07-04T10:00:43;2.75;;;1.20;;
49730;SDS011;35622;52.008;5.426;2022-07-04T10:03:20;3.85;;;1.20;;
49730;SDS011;35622;52.008;5.426;2022-07-04T10:06:12;4.60;;;1.30;;
49730;SDS011;35622;52.008;5.426;2022-07-04T10:08:41;3.55;;;1.30;;
49730;SDS011;35622;52.008;5.426;2022-07-04T10:11:07;4.30;;;1.15;;
49730;SDS011;35622;52.008;5.426;2022-07-04T10:13:33;3.50;;;1.23;;
49730;SDS011;35622;52.008;5.426;2022-07-04T10:15:59;4.50;;;1.35;;
49730;SDS011;35622;52.008;5.426;2022-07-04T10:18:25;2.47;;;1.17;;
49730;SDS011;35622;52.008;5.426;2022-07-04T10:20:51;3.97;;;1.50;;
49730;SDS011;35622;52.008;5.426;2022-07-04T10:23:19;3.25;;;1.30;;
49730;SDS011;35622;52.008;5.426;2022-07-04T10:25:47;4.10;;;1.40;;
49730;SDS011;35622;52.008;5.426;2022-07-04T10:28:14;2.10;;;1.23;;
49730;SDS011;35622;52.008;5.426;2022-07-04T10:30:40;3.60;;;1.30;;
49730;SDS011;35622;52.008;5.426;2022-07-04T10:33:10;2.55;;;1.20;;
49730;SDS011;35622;52.008;5.426;2022-07-04T10:46:28;3.80;;;1.20;;
49730;SDS011;35622;52.008;5.426;2022-07-04T10:54:07;4.10;;;1.67;;
49730;SDS011;35622;52.008;5.426;2022-07-04T10:56:48;3.35;;;1.30;;
49730;SDS011;35622;52.008;5.426;2022-07-04T11:07:16;2.50;;;1.30;;
49730;SDS011;35622;52.008;5.426;2022-07-04T11:09:46;3.05;;;1.92;;
49730;SDS011;35622;52.008;5.426;2022-07-04T11:17:49;1.90;;;1.30;;
49730;SDS011;35622;52.008;5.426;2022-07-04T11:20:17;3.80;;;1.10;;
49730;SDS011;35622;52.008;5.426;2022-07-04T11:22:43;3.55;;;1.15;;
49730;SDS011;35622;52.008;5.426;2022-07-04T11:25:09;2.17;;;1.13;;
49730;SDS011;35622;52.008;5.426;2022-07-04T11:27:36;2.05;;;1.20;;
49730;SDS011;35622;52.008;5.426;2022-07-04T11:30:02;5.38;;;1.40;;
49730;SDS011;35622;52.008;5.426;2022-07-04T11:32:32;2.35;;;1.40;;
49730;SDS011;35622;52.008;5.426;2022-07-04T11:34:59;0.90;;;0.85;;
49730;SDS011;35622;52.008;5.426;2022-07-04T11:37:25;1.98;;;0.95;;
49730;SDS011;35622;52.008;5.426;2022-07-04T11:39:50;2.17;;;1.17;;
49730;SDS011;35622;52.008;5.426;2022-07-04T11:43:03;2.17;;;1.35;;
49730;SDS011;35622;52.008;5.426;2022-07-04T11:45:46;1.73;;;0.90;;
49730;SDS011;35622;52.008;5.426;2022-07-04T11:48:20;2.65;;;0.90;;
49730;SDS011;35622;52.008;5.426;2022-07-04T11:50:49;2.20;;;0.90;;
49730;SDS011;35622;52.008;5.426;2022-07-04T11:53:16;2.90;;;1.00;;
49730;SDS011;35622;52.008;5.426;2022-07-04T11:55:58;2.25;;;1.08;;
49730;SDS011;35622;52.008;5.426;2022-07-04T11:58:38;2.40;;;1.08;;
49730;SDS011;35622;52.008;5.426;2022-07-04T12:01:08;1.38;;;0.70;;
49730;SDS011;35622;52.008;5.426;2022-07-04T12:03:35;2.78;;;0.93;;
49730;SDS011;35622;52.008;5.426;2022-07-04T12:06:01;1.65;;;0.90;;
49730;SDS011;35622;52.008;5.426;2022-07-04T12:08:31;1.95;;;0.90;;
49730;SDS011;35622;52.008;5.426;2022-07-04T12:10:56;1.45;;;1.02;;
49730;SDS011;35622;52.008;5.426;2022-07-04T12:13:22;1.30;;;0.77;;
49730;SDS011;35622;52.008;5.426;2022-07-04T12:15:49;1.75;;;0.90;;
49730;SDS011;35622;52.008;5.426;2022-07-04T12:18:16;1.90;;;0.80;;
49730;SDS011;35622;52.008;5.426;2022-07-04T12:20:46;2.63;;;1.10;;
49730;SDS011;35622;52.008;5.426;2022-07-04T12:23:13;2.15;;;1.00;;
49730;SDS011;35622;52.008;5.426;2022-07-04T12:25:39;2.30;;;1.00;;
49730;SDS011;35622;52.008;5.426;2022-07-04T12:28:12;2.25;;;1.00;;
49730;SDS011;35622;52.008;5.426;2022-07-04T12:30:47;1.42;;;0.82;;
49730;SDS011;35622;52.008;5.426;2022-07-04T12:33:24;1.80;;;0.80;;
49730;SDS011;35622;52.008;5.426;2022-07-04T12:35:52;2.55;;;1.00;;
49730;SDS011;35622;52.008;5.426;2022-07-04T12:48:54;3.17;;;1.10;;
49730;SDS011;35622;52.008;5.426;2022-07-04T12:51:24;1.88;;;1.23;;
49730;SDS011;35622;52.008;5.426;2022-07-04T12:53:52;2.58;;;1.00;;
49730;SDS011;35622;52.008;5.426;2022-07-04T12:58:57;3.42;;;0.98;;
49730;SDS011;35622;52.008;5.426;2022-07-04T13:01:23;3.13;;;1.00;;
49730;SDS011;35622;52.008;5.426;2022-07-04T13:03:49;2.13;;;0.95;;
49730;SDS011;35622;52.008;5.426;2022-07-04T13:06:14;2.53;;;1.02;;
49730;SDS011;35622;52.008;5.426;2022-07-04T13:08:40;3.55;;;1.10;;
49730;SDS011;35622;52.008;5.426;2022-07-04T13:11:06;2.05;;;1.10;;
49730;SDS011;35622;52.008;5.426;2022-07-04T13:13:50;1.17;;;0.82;;
49730;SDS011;35622;52.008;5.426;2022-07-04T13:16:15;1.38;;;0.90;;
49730;SDS011;35622;52.008;5.426;2022-07-04T13:18:41;2.40;;;0.80;;
49730;SDS011;35622;52.008;5.426;2022-07-04T13:21:06;1.83;;;1.08;;
49730;SDS011;35622;52.008;5.426;2022-07-04T13:23:32;2.28;;;0.90;;
49730;SDS011;35622;52.008;5.426;2022-07-04T13:25:57;2.63;;;0.98;;
49730;SDS011;35622;52.008;5.426;2022-07-04T13:28:23;2.45;;;1.05;;
49730;SDS011;35622;52.008;5.426;2022-07-04T13:30:48;2.78;;;1.20;;
49730;SDS011;35622;52.008;5.426;2022-07-04T13:33:14;1.67;;;1.10;;
49730;SDS011;35622;52.008;5.426;2022-07-04T13:35:40;2.70;;;1.00;;
49730;SDS011;35622;52.008;5.426;2022-07-04T13:38:06;2.00;;;0.90;;
49730;SDS011;35622;52.008;5.426;2022-07-04T13:40:31;1.33;;;0.98;;
49730;SDS011;35622;52.008;5.426;2022-07-04T13:42:57;3.15;;;1.00;;
49730;SDS011;35622;52.008;5.426;2022-07-04T13:45:23;1.50;;;1.02;;
49730;SDS011;35622;52.008;5.426;2022-07-04T13:47:49;3.55;;;1.20;;
49730;SDS011;35622;52.008;5.426;2022-07-04T13:50:14;2.63;;;1.00;;
49730;SDS011;35622;52.008;5.426;2022-07-04T13:52:40;2.22;;;1.10;;
49730;SDS011;35622;52.008;5.426;2022-07-04T13:55:06;2.55;;;1.05;;
49730;SDS011;35622;52.008;5.426;2022-07-04T13:57:31;2.75;;;1.00;;
49730;SDS011;35622;52.008;5.426;2022-07-04T13:59:58;3.88;;;1.10;;
49730;SDS011;35622;52.008;5.426;2022-07-04T14:02:24;2.03;;;1.00;;
49730;SDS011;35622;52.008;5.426;2022-07-04T14:04:49;3.42;;;1.20;;
49730;SDS011;35622;52.008;5.426;2022-07-04T14:07:15;2.30;;;1.17;;
49730;SDS011;35622;52.008;5.426;2022-07-04T14:09:40;1.88;;;1.00;;
49730;SDS011;35622;52.008;5.426;2022-07-04T14:12:06;3.17;;;1.27;;
49730;SDS011;35622;52.008;5.426;2022-07-04T14:14:32;2.35;;;1.08;;
49730;SDS011;35622;52.008;5.426;2022-07-04T14:16:58;1.90;;;0.98;;
49730;SDS011;35622;52.008;5.426;2022-07-04T14:19:24;2.33;;;1.10;;
49730;SDS011;35622;52.008;5.426;2022-07-04T14:21:50;2.80;;;1.13;;
49730;SDS011;35622;52.008;5.426;2022-07-04T14:24:16;2.28;;;0.90;;
49730;SDS011;35622;52.008;5.426;2022-07-04T14:26:42;2.15;;;1.20;;
49730;SDS011;35622;52.008;5.426;2022-07-04T14:29:08;2.42;;;1.00;;
49730;SDS011;35622;52.008;5.426;2022-07-04T14:31:34;3.15;;;1.13;;
49730;SDS011;35622;52.008;5.426;2022-07-04T14:33:59;2.30;;;1.13;;
49730;SDS011;35622;52.008;5.426;2022-07-04T14:36:26;2.85;;;1.02;;
49730;SDS011;35622;52.008;5.426;2022-07-04T14:38:51;2.47;;;1.20;;
49730;SDS011;35622;52.008;5.426;2022-07-04T14:41:17;2.40;;;1.17;;
49730;SDS011;35622;52.008;5.426;2022-07-04T14:43:43;1.63;;;0.98;;
49730;SDS011;35622;52.008;5.426;2022-07-04T14:46:09;2.92;;;1.45;;
49730;SDS011;35622;52.008;5.426;2022-07-04T14:48:36;1.90;;;1.15;;
49730;SDS011;35622;52.008;5.426;2022-07-04T14:51:02;3.53;;;1.30;;
49730;SDS011;35622;52.008;5.426;2022-07-04T14:53:28;3.60;;;1.27;;
49730;SDS011;35622;52.008;5.426;2022-07-04T14:55:54;1.77;;;0.90;;
49730;SDS011;35622;52.008;5.426;2022-07-04T14:58:20;4.22;;;1.10;;
49730;SDS011;35622;52.008;5.426;2022-07-04T15:00:46;2.53;;;1.08;;
49730;SDS011;35622;52.008;5.426;2022-07-04T15:03:11;2.05;;;1.00;;
49730;SDS011;35622;52.008;5.426;2022-07-04T15:05:37;2.10;;;1.15;;
49730;SDS011;35622;52.008;5.426;2022-07-04T15:08:02;2.38;;;1.00;;
49730;SDS011;35622;52.008;5.426;2022-07-04T15:10:28;2.10;;;1.10;;
49730;SDS011;35622;52.008;5.426;2022-07-04T15:12:54;1.95;;;0.90;;
49730;SDS011;35622;52.008;5.426;2022-07-04T15:15:20;3.55;;;1.27;;
49730;SDS011;35622;52.008;5.426;2022-07-04T15:17:46;2.45;;;1.30;;
49730;SDS011;35622;52.008;5.426;2022-07-04T15:20:12;3.05;;;1.17;;
49730;SDS011;35622;52.008;5.426;2022-07-04T15:22:57;3.20;;;1.15;;
49730;SDS011;35622;52.008;5.426;2022-07-04T15:25:41;3.70;;;1.50;;
49730;SDS011;35622;52.008;5.426;2022-07-04T15:28:06;2.75;;;1.05;;
49730;SDS011;35622;52.008;5.426;2022-07-04T15:30:32;3.92;;;1.20;;
49730;SDS011;35622;52.008;5.426;2022-07-04T15:32:58;1.80;;;1.10;;
49730;SDS011;35622;52.008;5.426;2022-07-04T15:35:23;2.35;;;1.00;;